createdAt,value
2022-08-25T00:00:20.495Z,101949.88
2022-08-25T00:02:55.749Z,101954.66
2022-08-25T00:05:32.211Z,101953.25
2022-08-25T00:08:01.523Z,101963.72
2022-08-25T00:10:29.724Z,101960.66
2022-08-25T00:12:57.904Z,101956.00
2022-08-25T00:15:26.024Z,101954.22
2022-08-25T00:17:54.049Z,101943.25
2022-08-25T00:20:22.483Z,101953.38
2022-08-25T00:22:52.015Z,101946.69
2022-08-25T00:25:23.015Z,101939.94
2022-08-25T00:27:51.591Z,101945.72
2022-08-25T00:30:19.914Z,101956.84
2022-08-25T00:32:55.033Z,101955.53
2022-08-25T00:35:25.541Z,101957.03
2022-08-25T00:37:54.917Z,101952.78
2022-08-25T00:40:23.564Z,101949.06
2022-08-25T00:42:51.708Z,101944.88
2022-08-25T00:45:19.869Z,101934.09
2022-08-25T00:47:48.049Z,101941.34
2022-08-25T00:50:16.092Z,101937.63
2022-08-25T00:52:45.965Z,101940.31
2022-08-25T00:55:16.869Z,101942.34
2022-08-25T00:57:47.231Z,101951.44
2022-08-25T01:00:17.778Z,101948.56
2022-08-25T01:02:47.864Z,101957.50
2022-08-25T01:05:18.178Z,101958.88
2022-08-25T01:07:46.224Z,101955.16
2022-08-25T01:10:15.892Z,101953.50
2022-08-25T01:12:43.998Z,101952.84
2022-08-25T01:15:13.435Z,101958.56
2022-08-25T01:17:47.157Z,101947.16
2022-08-25T01:20:15.477Z,101941.75
2022-08-25T01:22:44.879Z,101943.63
2022-08-25T01:25:23.333Z,101952.88
2022-08-25T01:27:51.477Z,101969.22
2022-08-25T01:30:19.615Z,101978.84
2022-08-25T01:32:47.625Z,101961.72
2022-08-25T01:35:15.656Z,101944.53
2022-08-25T01:37:45.064Z,101943.53
2022-08-25T01:40:13.771Z,101939.84
2022-08-25T01:42:47.786Z,101928.72
2022-08-25T01:45:15.817Z,101934.66
2022-08-25T01:47:44.889Z,101935.84
2022-08-25T01:50:13.331Z,101939.91
2022-08-25T01:52:51.905Z,101930.31
2022-08-25T01:55:20.163Z,101940.25
2022-08-25T01:57:48.228Z,101941.25
2022-08-25T02:00:17.184Z,101930.50
2022-08-25T02:02:47.275Z,101933.19
2022-08-25T02:05:23.473Z,101935.25
2022-08-25T02:07:53.691Z,101934.53
2022-08-25T02:10:22.431Z,101924.78
2022-08-25T02:12:51.749Z,101925.13
2022-08-25T02:15:22.745Z,101919.75
2022-08-25T02:17:50.733Z,101924.78
2022-08-25T02:20:19.149Z,101926.47
2022-08-25T02:22:56.652Z,101938.56
2022-08-25T02:25:26.596Z,101946.00
2022-08-25T02:27:55.008Z,101940.63
2022-08-25T02:30:23.222Z,101946.84
2022-08-25T02:32:53.919Z,101938.06
2022-08-25T02:35:22.139Z,101928.16
2022-08-25T02:37:51.718Z,101935.53
2022-08-25T02:40:21.799Z,101934.53
2022-08-25T02:42:51.423Z,101931.84
2022-08-25T02:45:19.789Z,101936.38
2022-08-25T02:47:48.903Z,101937.56
2022-08-25T02:50:26.265Z,101940.25
2022-08-25T02:52:55.576Z,101940.47
2022-08-25T02:55:23.878Z,101939.94
2022-08-25T02:57:53.339Z,101939.66
2022-08-25T03:00:23.223Z,101950.25
2022-08-25T03:02:51.506Z,101959.66
2022-08-25T03:05:19.591Z,101963.34
2022-08-25T03:07:47.622Z,101952.59
2022-08-25T03:10:16.835Z,101950.06
2022-08-25T03:12:45.486Z,101942.00
2022-08-25T03:15:16.407Z,101941.69
2022-08-25T03:17:45.650Z,101941.69
2022-08-25T03:20:14.301Z,101935.31
2022-08-25T03:22:42.588Z,101927.06
2022-08-25T03:25:28.917Z,101922.69
2022-08-25T03:27:56.965Z,101929.25
2022-08-25T03:30:26.435Z,101920.16
2022-08-25T03:32:54.528Z,101915.16
2022-08-25T03:35:22.705Z,101914.31
2022-08-25T03:37:51.197Z,101919.19
2022-08-25T03:40:19.233Z,101909.81
2022-08-25T03:42:50.647Z,101899.56
2022-08-25T03:45:19.241Z,101898.22
2022-08-25T03:47:49.070Z,101890.69
2022-08-25T03:50:17.547Z,101897.59
2022-08-25T03:52:45.748Z,101887.88
2022-08-25T03:55:14.551Z,101885.03
2022-08-25T03:57:42.691Z,101879.34
2022-08-25T04:00:12.441Z,101879.69
2022-08-25T04:02:40.652Z,101876.31
2022-08-25T04:05:11.104Z,101879.50
2022-08-25T04:07:39.183Z,101873.94
2022-08-25T04:10:07.471Z,101878.47
2022-08-25T04:12:36.018Z,101876.81
2022-08-25T04:15:04.116Z,101866.25
2022-08-25T04:17:32.396Z,101863.72
2022-08-25T04:20:00.505Z,101861.34
2022-08-25T04:22:31.138Z,101856.50
2022-08-25T04:25:02.277Z,101857.19
2022-08-25T04:27:30.301Z,101844.25
2022-08-25T04:29:58.377Z,101851.66
2022-08-25T04:32:26.422Z,101849.16
2022-08-25T04:34:54.526Z,101847.13
2022-08-25T04:37:22.570Z,101847.13
2022-08-25T04:39:53.557Z,101841.75
2022-08-25T04:42:21.725Z,101849.81
2022-08-25T04:44:50.111Z,101862.25
2022-08-25T04:47:20.227Z,101856.22
2022-08-25T04:49:48.501Z,101864.59
2022-08-25T04:52:16.567Z,101879.72
2022-08-25T04:54:45.064Z,101882.56
2022-08-25T04:57:16.754Z,101885.44
2022-08-25T04:59:45.071Z,101875.84
2022-08-25T05:02:13.089Z,101880.38
2022-08-25T05:04:41.551Z,101890.75
2022-08-25T05:07:09.577Z,101896.13
2022-08-25T05:09:37.881Z,101902.53
2022-08-25T05:12:07.771Z,101903.84
2022-08-25T05:14:39.178Z,101910.25
2022-08-25T05:17:08.033Z,101901.16
2022-08-25T05:19:37.213Z,101895.13
2022-08-25T05:22:05.320Z,101895.13
2022-08-25T05:24:36.213Z,101902.69
2022-08-25T05:27:04.360Z,101904.91
2022-08-25T05:29:32.883Z,101907.19
2022-08-25T05:32:02.407Z,101907.56
2022-08-25T05:34:31.687Z,101917.47
2022-08-25T05:37:03.277Z,101901.66
2022-08-25T05:39:33.815Z,101914.25
2022-08-25T05:42:01.914Z,101920.16
2022-08-25T05:44:31.405Z,101927.06
2022-08-25T05:46:59.618Z,101936.13
2022-08-25T05:49:29.200Z,101946.84
2022-08-25T05:51:57.223Z,101932.41
2022-08-25T05:54:25.385Z,101934.38
2022-08-25T05:56:53.489Z,101925.66
2022-08-25T05:59:21.576Z,101923.28
2022-08-25T06:02:06.953Z,101940.09
2022-08-25T06:04:41.083Z,101935.72
2022-08-25T06:07:09.544Z,101940.72
2022-08-25T06:09:39.148Z,101951.00
2022-08-25T06:12:09.081Z,101954.31
2022-08-25T06:14:37.261Z,101957.22
2022-08-25T06:17:05.356Z,101954.53
2022-08-25T06:19:33.460Z,101960.53
2022-08-25T06:22:06.633Z,101959.84
2022-08-25T06:24:35.929Z,101967.41
2022-08-25T06:27:04.065Z,101968.25
2022-08-25T06:29:32.659Z,101983.19
2022-08-25T06:32:00.967Z,101982.03
2022-08-25T06:34:29.194Z,101984.53
2022-08-25T06:36:57.320Z,101986.41
2022-08-25T06:39:26.728Z,101982.69
2022-08-25T06:41:54.821Z,101991.91
2022-08-25T06:44:28.167Z,101992.06
2022-08-25T06:46:56.321Z,101992.06
2022-08-25T06:49:27.815Z,101985.50
2022-08-25T06:51:55.974Z,101989.69
2022-08-25T06:54:24.047Z,101983.13
2022-08-25T06:56:55.694Z,101986.66
2022-08-25T06:59:32.336Z,101982.94
2022-08-25T07:02:00.817Z,101978.56
2022-08-25T07:04:36.460Z,101979.75
2022-08-25T07:07:06.362Z,101972.22
2022-08-25T07:09:37.383Z,101985.50
2022-08-25T07:12:09.486Z,101988.38
2022-08-25T07:14:37.902Z,101992.44
2022-08-25T07:17:10.476Z,101990.78
2022-08-25T07:19:41.034Z,101995.47
2022-08-25T07:22:09.513Z,101993.25
2022-08-25T07:24:37.673Z,101991.38
2022-08-25T07:27:06.182Z,101994.59
2022-08-25T07:29:42.718Z,101988.03
2022-08-25T07:32:10.986Z,101981.84
2022-08-25T07:34:56.606Z,101984.16
2022-08-25T07:37:48.761Z,101989.38
2022-08-25T07:40:15.643Z,101987.69
2022-08-25T07:42:43.874Z,101983.97
2022-08-25T07:45:17.294Z,101977.94
2022-08-25T07:47:51.710Z,101983.66
2022-08-25T07:50:20.123Z,101975.72
2022-08-25T07:52:53.895Z,101980.22
2022-08-25T07:55:23.761Z,101987.22
2022-08-25T07:58:10.999Z,101988.06
2022-08-25T08:00:42.337Z,101986.00
2022-08-25T08:03:19.763Z,101993.47
2022-08-25T08:05:59.940Z,101996.59
2022-08-25T08:08:28.095Z,102006.09
2022-08-25T08:11:04.610Z,102008.00
2022-08-25T08:13:36.671Z,102008.69
2022-08-25T08:16:11.397Z,102011.91
2022-08-25T08:18:42.604Z,102019.03
2022-08-25T08:21:12.828Z,102020.47
2022-08-25T08:23:58.755Z,102032.94
2022-08-25T08:26:48.169Z,102033.34
2022-08-25T08:29:16.458Z,102032.66
2022-08-25T08:31:48.369Z,102034.44
2022-08-25T08:34:17.055Z,102034.63
2022-08-25T08:36:45.377Z,102044.66
2022-08-25T08:39:13.584Z,102042.81
2022-08-25T08:42:16.962Z,102035.91
2022-08-25T08:45:03.683Z,102041.59
2022-08-25T08:47:52.963Z,102038.16
2022-08-25T08:50:30.750Z,102026.97
2022-08-25T08:53:05.076Z,102025.84
2022-08-25T08:55:37.428Z,102023.72
2022-08-25T08:58:07.437Z,102023.63
2022-08-25T09:00:40.430Z,102020.84
2022-08-25T09:03:14.849Z,102019.69
2022-08-25T09:05:47.963Z,102011.88
2022-08-25T09:08:20.510Z,102013.16
2022-08-25T09:10:59.149Z,102016.59
2022-08-25T09:13:35.926Z,102024.28
2022-08-25T09:16:33.734Z,102021.94
2022-08-25T09:19:23.336Z,102023.22
2022-08-25T09:21:54.705Z,102031.31
2022-08-25T09:24:31.329Z,102011.25
2022-08-25T09:27:05.712Z,102021.75
2022-08-25T09:29:45.770Z,102027.47
2022-08-25T09:32:13.995Z,102029.50
2022-08-25T09:34:44.882Z,102020.03
2022-08-25T09:37:12.999Z,102025.69
2022-08-25T09:39:42.213Z,102027.84
2022-08-25T09:42:10.336Z,102021.41
2022-08-25T09:44:41.392Z,102014.19
2022-08-25T09:47:16.506Z,102015.34
2022-08-25T09:49:50.653Z,102009.19
2022-08-25T09:52:32.998Z,102009.75
2022-08-25T09:55:03.184Z,102012.72
2022-08-25T09:57:35.830Z,102010.22
2022-08-25T10:00:15.990Z,102010.63
2022-08-25T10:02:44.513Z,102024.84
2022-08-25T10:05:23.336Z,102039.19
2022-08-25T10:07:54.952Z,102029.13
2022-08-25T10:10:32.373Z,102028.09
2022-08-25T10:13:06.348Z,102039.28
2022-08-25T10:15:36.386Z,102033.63
2022-08-25T10:18:25.814Z,102030.19
2022-08-25T10:21:10.365Z,102038.41
2022-08-25T10:23:44.816Z,102036.50
2022-08-25T10:26:23.763Z,102033.16
2022-08-25T10:29:03.393Z,102038.16
2022-08-25T10:31:34.977Z,102021.84
2022-08-25T10:34:09.736Z,102034.66
2022-08-25T10:36:53.032Z,102024.53
2022-08-25T10:39:36.308Z,102028.38
2022-08-25T10:42:09.153Z,102024.59
2022-08-25T10:44:57.407Z,102022.91
2022-08-25T10:47:44.657Z,102023.44
2022-08-25T10:50:16.236Z,102026.91
2022-08-25T10:52:56.427Z,102025.34
2022-08-25T10:55:27.221Z,102023.72
2022-08-25T10:57:57.550Z,102020.38
2022-08-25T11:00:31.561Z,102026.44
2022-08-25T11:03:26.786Z,102031.22
2022-08-25T11:05:57.161Z,102023.50
2022-08-25T11:08:33.671Z,102031.88
2022-08-25T11:11:03.690Z,102026.06
2022-08-25T11:13:38.854Z,102027.31
2022-08-25T11:16:17.400Z,102033.66
2022-08-25T11:18:52.941Z,102028.94
2022-08-25T11:21:23.200Z,102026.97
2022-08-25T11:23:55.410Z,102032.03
2022-08-25T11:26:36.597Z,102013.03
2022-08-25T11:29:11.482Z,102024.09
2022-08-25T11:31:44.447Z,102021.00
2022-08-25T11:34:15.610Z,102021.31
2022-08-25T11:36:51.385Z,102028.34
2022-08-25T11:39:33.063Z,102032.38
2022-08-25T11:42:07.928Z,102033.69
2022-08-25T11:44:53.110Z,102023.91
2022-08-25T11:47:54.789Z,102035.19
2022-08-25T11:50:30.242Z,102019.53
2022-08-25T11:52:59.212Z,102020.16
2022-08-25T11:55:49.504Z,102030.16
2022-08-25T11:58:30.737Z,102021.38
2022-08-25T12:01:01.667Z,102028.31
2022-08-25T12:03:54.299Z,102040.63
2022-08-25T12:06:28.065Z,102037.50
2022-08-25T12:09:17.233Z,102042.34
2022-08-25T12:11:58.014Z,102040.28
2022-08-25T12:14:40.112Z,102049.06
2022-08-25T12:17:18.132Z,102054.69
2022-08-25T12:19:51.821Z,102055.97
2022-08-25T12:22:43.893Z,102062.38
2022-08-25T12:25:17.784Z,102058.34
2022-08-25T12:27:50.598Z,102062.31
2022-08-25T12:30:21.406Z,102061.50
2022-08-25T12:33:00.339Z,102062.56
2022-08-25T12:35:30.839Z,102056.53
2022-08-25T12:38:02.711Z,102071.38
2022-08-25T12:40:36.127Z,102061.19
2022-08-25T12:43:24.875Z,102067.41
2022-08-25T12:45:54.031Z,102075.81
2022-08-25T12:48:44.981Z,102074.28
2022-08-25T12:51:17.817Z,102078.03
2022-08-25T12:53:48.123Z,102090.78
2022-08-25T12:56:25.455Z,102072.88
2022-08-25T12:59:13.591Z,102085.38
2022-08-25T13:02:03.215Z,102079.94
2022-08-25T13:04:49.443Z,102078.28
2022-08-25T13:07:23.967Z,102086.22
2022-08-25T13:10:20.216Z,102084.94
2022-08-25T13:12:51.553Z,102081.00
2022-08-25T13:15:35.343Z,102082.88
2022-08-25T13:18:23.499Z,102079.97
2022-08-25T13:20:54.083Z,102097.69
2022-08-25T13:23:26.376Z,102102.91
2022-08-25T13:25:58.396Z,102090.19
2022-08-25T13:28:29.789Z,102092.06
2022-08-25T13:31:04.753Z,102096.66
2022-08-25T13:33:33.409Z,102079.53
2022-08-25T13:36:19.647Z,102107.75
2022-08-25T13:38:48.819Z,102094.00
2022-08-25T13:41:21.391Z,102101.69
2022-08-25T13:44:02.635Z,102094.97
2022-08-25T13:46:35.475Z,102092.88
2022-08-25T13:49:05.765Z,102084.09
2022-08-25T13:51:34.119Z,102106.03
2022-08-25T13:54:03.327Z,102088.91
2022-08-25T13:56:38.791Z,102088.03
2022-08-25T13:59:24.579Z,102080.09
2022-08-25T14:02:00.500Z,102085.72
2022-08-25T14:04:34.410Z,102092.41
2022-08-25T14:07:33.844Z,102097.81
2022-08-25T14:10:05.758Z,102092.31
2022-08-25T14:12:37.410Z,102085.53
2022-08-25T14:15:14.143Z,102093.81
2022-08-25T14:18:00.777Z,102081.91
2022-08-25T14:20:31.219Z,102087.72
2022-08-25T14:23:01.835Z,102083.19
2022-08-25T14:25:31.461Z,102078.75
2022-08-25T14:28:10.886Z,102080.72
2022-08-25T14:30:45.986Z,102078.41
2022-08-25T14:33:21.201Z,102088.75
2022-08-25T14:35:50.809Z,102087.00
2022-08-25T14:38:19.719Z,102076.63
2022-08-25T14:40:50.293Z,102077.84
2022-08-25T14:43:23.641Z,102076.22
2022-08-25T14:45:52.390Z,102087.91
2022-08-25T14:48:26.418Z,102079.56
2022-08-25T14:50:55.077Z,102087.59
2022-08-25T14:53:23.136Z,102089.88
2022-08-25T14:55:53.926Z,102077.22
2022-08-25T14:58:27.184Z,102076.00
2022-08-25T15:00:55.316Z,102077.13
2022-08-25T15:03:33.565Z,102079.59
2022-08-25T15:06:01.996Z,102082.59
2022-08-25T15:08:47.377Z,102082.81
2022-08-25T15:11:15.960Z,102087.25
2022-08-25T15:13:49.393Z,102088.28
2022-08-25T15:16:22.330Z,102086.00
2022-08-25T15:18:52.327Z,102079.38
2022-08-25T15:21:21.793Z,102091.16
2022-08-25T15:23:53.146Z,102093.97
2022-08-25T15:26:24.630Z,102080.66
2022-08-25T15:28:53.801Z,102079.25
2022-08-25T15:31:24.027Z,102087.31
2022-08-25T15:33:56.161Z,102089.63
2022-08-25T15:36:25.550Z,102090.34
2022-08-25T15:38:54.616Z,102090.34
2022-08-25T15:41:27.805Z,102091.63
2022-08-25T15:43:56.676Z,102092.78
2022-08-25T15:46:26.039Z,102083.59
2022-08-25T15:51:28.817Z,102100.41
2022-08-25T15:53:56.973Z,102087.41
2022-08-25T15:56:26.407Z,102089.72
2022-08-25T15:58:55.460Z,102089.56
2022-08-25T16:01:25.354Z,102077.63
2022-08-25T16:03:53.534Z,102082.31
2022-08-25T16:06:24.479Z,102084.72
2022-08-25T16:08:54.455Z,102082.31
2022-08-25T16:11:24.534Z,102079.84
2022-08-25T16:13:52.860Z,102091.94
2022-08-25T16:16:21.768Z,102093.22
2022-08-25T16:18:52.451Z,102088.00
2022-08-25T16:21:25.673Z,102093.44
2022-08-25T16:23:57.898Z,102093.56
2022-08-25T16:26:27.464Z,102089.88
2022-08-25T16:28:55.504Z,102092.00
2022-08-25T16:31:24.190Z,102087.00
2022-08-25T16:33:54.814Z,102087.44
2022-08-25T16:36:28.125Z,102091.66
2022-08-25T16:38:56.459Z,102091.47
2022-08-25T16:41:27.120Z,102088.78
2022-08-25T16:43:55.772Z,102085.34
2022-08-25T16:46:26.903Z,102097.78
2022-08-25T16:48:55.700Z,102092.91
2022-08-25T16:51:29.500Z,102101.84
2022-08-25T16:54:22.051Z,102091.00
2022-08-25T16:56:54.681Z,102092.25
2022-08-25T16:59:23.784Z,102104.13
2022-08-25T17:01:52.532Z,102104.84
2022-08-25T17:04:20.766Z,102089.53
2022-08-25T17:07:04.345Z,102102.63
2022-08-25T17:09:34.764Z,102095.91
2022-08-25T17:12:02.811Z,102099.72
2022-08-25T17:14:30.849Z,102091.88
2022-08-25T17:16:59.122Z,102097.22
2022-08-25T17:19:27.870Z,102099.94
2022-08-25T17:21:59.411Z,102097.66
2022-08-25T17:24:29.510Z,102107.09
2022-08-25T17:27:01.976Z,102103.06
2022-08-25T17:29:30.410Z,102102.88
2022-08-25T17:31:58.549Z,102110.44
2022-08-25T17:34:27.524Z,102099.19
2022-08-25T17:36:56.087Z,102106.72
2022-08-25T17:39:26.617Z,102105.88
2022-08-25T17:41:54.717Z,102112.56
2022-08-25T17:44:25.362Z,102096.88
2022-08-25T17:46:53.641Z,102105.63
2022-08-25T17:49:23.060Z,102109.38
2022-08-25T17:51:52.654Z,102107.50
2022-08-25T17:54:20.708Z,102099.34
2022-08-25T17:56:48.904Z,102100.47
2022-08-25T17:59:18.860Z,102107.50
2022-08-25T18:01:50.138Z,102106.88
2022-08-25T18:04:23.724Z,102107.88
2022-08-25T18:06:55.535Z,102104.44
2022-08-25T18:09:23.643Z,102098.75
2022-08-25T18:11:53.033Z,102119.22
2022-08-25T18:14:25.280Z,102123.25
2022-08-25T18:16:56.988Z,102117.25
2022-08-25T18:19:25.033Z,102114.28
2022-08-25T18:21:53.013Z,102124.75
2022-08-25T18:24:23.531Z,102130.59
2022-08-25T18:26:51.868Z,102130.97
2022-08-25T18:29:20.751Z,102130.16
2022-08-25T18:31:49.065Z,102130.75
2022-08-25T18:34:18.940Z,102125.91
2022-08-25T18:36:48.170Z,102123.38
2022-08-25T18:39:36.823Z,102126.22
2022-08-25T18:42:05.929Z,102126.03
2022-08-25T18:44:36.710Z,102124.59
2022-08-25T18:47:07.576Z,102124.50
2022-08-25T18:49:38.430Z,102124.41
2022-08-25T18:52:07.571Z,102120.66
2022-08-25T18:54:36.126Z,102124.41
2022-08-25T18:57:04.466Z,102124.78
2022-08-25T18:59:37.965Z,102130.88
2022-08-25T19:02:06.591Z,102116.09
2022-08-25T19:04:34.795Z,102128.91
2022-08-25T19:07:05.251Z,102125.06
2022-08-25T19:09:36.275Z,102135.00
2022-08-25T19:12:05.359Z,102136.69
2022-08-25T19:14:33.403Z,102138.72
2022-08-25T19:17:01.653Z,102146.63
2022-08-25T19:19:29.694Z,102134.16
2022-08-25T19:21:59.394Z,102133.88
2022-08-25T19:24:29.809Z,102142.84
2022-08-25T19:26:58.168Z,102142.53
2022-08-25T19:29:26.525Z,102146.97
2022-08-25T19:31:58.684Z,102137.88
2022-08-25T19:34:30.650Z,102143.94
2022-08-25T19:37:01.035Z,102137.91
2022-08-25T19:39:30.764Z,102136.09
2022-08-25T19:42:01.668Z,102143.66
2022-08-25T19:44:31.480Z,102147.06
2022-08-25T19:47:03.615Z,102142.03
2022-08-25T19:49:37.155Z,102148.94
2022-08-25T19:52:10.436Z,102151.81
2022-08-25T19:54:44.459Z,102150.13
2022-08-25T19:57:13.064Z,102149.28
2022-08-25T19:59:56.138Z,102159.72
2022-08-25T20:02:25.950Z,102151.16
2022-08-25T20:04:59.290Z,102159.41
2022-08-25T20:07:29.274Z,102161.78
2022-08-25T20:10:00.826Z,102166.84
2022-08-25T20:12:29.366Z,102162.81
2022-08-25T20:14:57.857Z,102161.47
2022-08-25T20:17:28.455Z,102157.25
2022-08-25T20:19:57.741Z,102157.59
2022-08-25T20:22:27.133Z,102163.81
2022-08-25T20:24:58.503Z,102164.47
2022-08-25T20:27:29.104Z,102163.13
2022-08-25T20:29:57.213Z,102168.00
2022-08-25T20:32:25.257Z,102166.31
2022-08-25T20:34:55.610Z,102171.91
2022-08-25T20:37:24.134Z,102162.97
2022-08-25T20:39:55.295Z,102164.00
2022-08-25T20:42:24.800Z,102159.94
2022-08-25T20:44:53.615Z,102164.16
2022-08-25T20:47:22.584Z,102156.06
2022-08-25T20:49:50.624Z,102153.06
2022-08-25T20:52:19.087Z,102160.97
2022-08-25T20:54:50.516Z,102155.59
2022-08-25T20:57:25.573Z,102163.47
2022-08-25T20:59:56.104Z,102165.66
2022-08-25T21:02:24.338Z,102160.97
2022-08-25T21:04:52.472Z,102155.06
2022-08-25T21:07:20.727Z,102154.75
2022-08-25T21:09:51.819Z,102151.53
2022-08-25T21:12:19.952Z,102154.25
2022-08-25T21:14:48.242Z,102149.69
2022-08-25T21:17:20.267Z,102149.19
2022-08-25T21:22:21.791Z,102153.03
2022-08-25T21:24:51.617Z,102153.38
2022-08-25T21:27:19.730Z,102144.47
2022-08-25T21:29:54.832Z,102144.47
2022-08-25T21:32:25.510Z,102147.16
2022-08-25T21:34:54.659Z,102154.53
2022-08-25T21:37:22.897Z,102145.78
2022-08-25T21:39:51.025Z,102153.22
2022-08-25T21:42:19.323Z,102144.47
2022-08-25T21:44:47.459Z,102148.50
2022-08-25T21:47:15.858Z,102149.94
2022-08-25T21:49:50.988Z,102159.66
2022-08-25T21:52:19.199Z,102162.88
2022-08-25T21:54:50.004Z,102166.22
2022-08-25T21:57:23.801Z,102156.78
2022-08-25T21:59:52.088Z,102149.38
2022-08-25T22:02:22.618Z,102144.81
2022-08-25T22:04:53.783Z,102155.72
2022-08-25T22:07:22.578Z,102152.66
2022-08-25T22:09:53.524Z,102151.59
2022-08-25T22:12:21.538Z,102156.63
2022-08-25T22:14:52.019Z,102152.22
2022-08-25T22:17:21.035Z,102153.53
2022-08-25T22:19:56.556Z,102147.41
2022-08-25T22:22:25.086Z,102142.84
2022-08-25T22:24:53.595Z,102148.34
2022-08-25T22:27:23.615Z,102144.25
2022-08-25T22:29:52.041Z,102144.91
2022-08-25T22:32:21.040Z,102115.13
2022-08-25T22:34:49.297Z,102132.97
2022-08-25T22:37:18.905Z,102140.16
2022-08-25T22:39:47.125Z,102132.97
2022-08-25T22:42:15.403Z,102134.25
2022-08-25T22:44:43.561Z,102139.13
2022-08-25T22:47:12.442Z,102142.78
2022-08-25T22:49:40.681Z,102133.53
2022-08-25T22:52:09.433Z,102130.00
2022-08-25T22:54:42.557Z,102149.47
2022-08-25T22:57:11.254Z,102135.88
2022-08-25T22:59:39.456Z,102129.84
2022-08-25T23:02:07.526Z,102129.66
2022-08-25T23:04:37.320Z,102128.25
2022-08-25T23:07:11.351Z,102114.63
2022-08-25T23:09:39.674Z,102122.47
2022-08-25T23:12:09.825Z,102128.13
2022-08-25T23:14:42.107Z,102119.41
2022-08-25T23:17:12.336Z,102124.91
2022-08-25T23:19:40.823Z,102112.38
2022-08-25T23:22:10.960Z,102115.41
2022-08-25T23:24:42.497Z,102118.78
2022-08-25T23:27:13.395Z,102123.81
2022-08-25T23:29:43.447Z,102112.09
2022-08-25T23:32:14.358Z,102118.31
2022-08-25T23:34:42.947Z,102115.78
2022-08-25T23:37:15.720Z,102114.78
2022-08-25T23:39:45.734Z,102116.47
2022-08-25T23:42:15.263Z,102109.41
2022-08-25T23:44:43.838Z,102115.47
2022-08-25T23:47:12.909Z,102122.38
2022-08-25T23:49:41.129Z,102122.59
2022-08-25T23:52:09.119Z,102126.28
2022-08-25T23:54:37.164Z,102129.94
2022-08-25T23:57:06.989Z,102119.00
2022-08-25T23:59:38.291Z,102124.16
